sensor_id;sensor_type;location;lat;lon;timestamp;P1;durP1;ratioP1;P2;durP2;ratioP2
12348;SDS011;5974;42.710;27.258;2023-04-28T00:01:14;2.27;;;2.07;;
12348;SDS011;5974;42.710;27.258;2023-04-28T00:03:41;2.43;;;2.23;;
12348;SDS011;5974;42.710;27.258;2023-04-28T00:06:08;6.03;;;2.80;;
12348;SDS011;5974;42.710;27.258;2023-04-28T00:08:35;5.20;;;2.60;;
12348;SDS011;5974;42.710;27.258;2023-04-28T00:11:03;4.33;;;2.50;;
12348;SDS011;5974;42.710;27.258;2023-04-28T00:13:35;4.53;;;2.23;;
12348;SDS011;5974;42.710;27.258;2023-04-28T00:16:02;4.07;;;2.20;;
12348;SDS011;5974;42.710;27.258;2023-04-28T00:18:29;3.90;;;2.33;;
12348;SDS011;5974;42.710;27.258;2023-04-28T00:20:57;4.30;;;2.60;;
12348;SDS011;5974;42.710;27.258;2023-04-28T00:23:24;4.30;;;2.43;;
12348;SDS011;5974;42.710;27.258;2023-04-28T00:25:51;4.53;;;2.30;;
12348;SDS011;5974;42.710;27.258;2023-04-28T00:28:19;3.23;;;2.40;;
12348;SDS011;5974;42.710;27.258;2023-04-28T00:30:46;5.17;;;2.30;;
12348;SDS011;5974;42.710;27.258;2023-04-28T00:33:13;3.03;;;1.90;;
12348;SDS011;5974;42.710;27.258;2023-04-28T00:35:40;3.73;;;2.50;;
12348;SDS011;5974;42.710;27.258;2023-04-28T00:38:07;3.50;;;2.27;;
12348;SDS011;5974;42.710;27.258;2023-04-28T00:40:34;4.50;;;2.20;;
12348;SDS011;5974;42.710;27.258;2023-04-28T00:43:01;4.07;;;1.87;;
12348;SDS011;5974;42.710;27.258;2023-04-28T00:45:30;4.67;;;2.30;;
12348;SDS011;5974;42.710;27.258;2023-04-28T00:47:57;2.30;;;2.10;;
12348;SDS011;5974;42.710;27.258;2023-04-28T00:50:25;3.30;;;2.10;;
12348;SDS011;5974;42.710;27.258;2023-04-28T00:52:52;3.87;;;2.07;;
12348;SDS011;5974;42.710;27.258;2023-04-28T00:55:18;3.77;;;1.90;;
12348;SDS011;5974;42.710;27.258;2023-04-28T00:57:47;2.50;;;1.87;;
12348;SDS011;5974;42.710;27.258;2023-04-28T01:00:14;4.77;;;2.50;;
12348;SDS011;5974;42.710;27.258;2023-04-28T01:02:43;3.30;;;2.07;;
12348;SDS011;5974;42.710;27.258;2023-04-28T01:05:10;2.17;;;1.93;;
12348;SDS011;5974;42.710;27.258;2023-04-28T01:07:39;3.43;;;1.90;;
12348;SDS011;5974;42.710;27.258;2023-04-28T01:10:06;2.47;;;2.00;;
12348;SDS011;5974;42.710;27.258;2023-04-28T01:12:34;4.00;;;2.00;;
12348;SDS011;5974;42.710;27.258;2023-04-28T01:15:01;3.43;;;1.90;;
12348;SDS011;5974;42.710;27.258;2023-04-28T01:17:28;4.30;;;2.07;;
12348;SDS011;5974;42.710;27.258;2023-04-28T01:19:56;4.20;;;2.13;;
12348;SDS011;5974;42.710;27.258;2023-04-28T01:22:23;3.10;;;1.90;;
12348;SDS011;5974;42.710;27.258;2023-04-28T01:24:51;3.40;;;1.80;;
12348;SDS011;5974;42.710;27.258;2023-04-28T01:27:18;2.37;;;2.03;;
12348;SDS011;5974;42.710;27.258;2023-04-28T01:29:46;4.00;;;2.13;;
12348;SDS011;5974;42.710;27.258;2023-04-28T01:32:13;3.23;;;2.03;;
12348;SDS011;5974;42.710;27.258;2023-04-28T01:34:39;2.30;;;2.10;;
12348;SDS011;5974;42.710;27.258;2023-04-28T01:37:06;3.43;;;2.40;;
12348;SDS011;5974;42.710;27.258;2023-04-28T01:39:33;5.47;;;2.00;;
12348;SDS011;5974;42.710;27.258;2023-04-28T01:42:01;2.47;;;2.03;;
12348;SDS011;5974;42.710;27.258;2023-04-28T01:44:28;3.20;;;2.20;;
12348;SDS011;5974;42.710;27.258;2023-04-28T01:46:55;4.87;;;2.23;;
12348;SDS011;5974;42.710;27.258;2023-04-28T01:49:22;3.07;;;2.10;;
12348;SDS011;5974;42.710;27.258;2023-04-28T01:51:49;3.20;;;2.13;;
12348;SDS011;5974;42.710;27.258;2023-04-28T01:54:15;4.43;;;2.53;;
12348;SDS011;5974;42.710;27.258;2023-04-28T01:56:42;5.47;;;2.10;;
12348;SDS011;5974;42.710;27.258;2023-04-28T01:59:11;2.73;;;2.20;;
12348;SDS011;5974;42.710;27.258;2023-04-28T02:01:37;4.10;;;2.07;;
12348;SDS011;5974;42.710;27.258;2023-04-28T02:04:04;3.67;;;2.23;;
12348;SDS011;5974;42.710;27.258;2023-04-28T02:06:31;4.87;;;2.20;;
12348;SDS011;5974;42.710;27.258;2023-04-28T02:08:58;2.27;;;2.07;;
12348;SDS011;5974;42.710;27.258;2023-04-28T02:11:25;2.53;;;2.23;;
12348;SDS011;5974;42.710;27.258;2023-04-28T02:13:52;2.73;;;1.87;;
12348;SDS011;5974;42.710;27.258;2023-04-28T02:16:20;3.23;;;2.20;;
12348;SDS011;5974;42.710;27.258;2023-04-28T02:18:47;4.07;;;2.17;;
12348;SDS011;5974;42.710;27.258;2023-04-28T02:21:14;4.13;;;2.20;;
12348;SDS011;5974;42.710;27.258;2023-04-28T02:23:40;4.67;;;2.27;;
12348;SDS011;5974;42.710;27.258;2023-04-28T02:26:07;5.77;;;2.40;;
12348;SDS011;5974;42.710;27.258;2023-04-28T02:28:34;3.27;;;2.03;;
12348;SDS011;5974;42.710;27.258;2023-04-28T02:31:04;4.67;;;2.27;;
12348;SDS011;5974;42.710;27.258;2023-04-28T02:33:33;3.00;;;2.03;;
12348;SDS011;5974;42.710;27.258;2023-04-28T02:36:00;2.90;;;1.90;;
12348;SDS011;5974;42.710;27.258;2023-04-28T02:38:27;3.50;;;2.10;;
12348;SDS011;5974;42.710;27.258;2023-04-28T02:40:57;6.47;;;2.80;;
12348;SDS011;5974;42.710;27.258;2023-04-28T02:43:25;3.63;;;2.10;;
12348;SDS011;5974;42.710;27.258;2023-04-28T02:45:52;4.13;;;2.00;;
12348;SDS011;5974;42.710;27.258;2023-04-28T02:48:19;2.60;;;2.00;;
12348;SDS011;5974;42.710;27.258;2023-04-28T02:50:47;2.93;;;2.10;;
12348;SDS011;5974;42.710;27.258;2023-04-28T02:53:14;2.33;;;1.93;;
12348;SDS011;5974;42.710;27.258;2023-04-28T02:55:41;3.90;;;2.10;;
12348;SDS011;5974;42.710;27.258;2023-04-28T02:58:08;6.00;;;2.20;;
12348;SDS011;5974;42.710;27.258;2023-04-28T03:00:35;4.90;;;2.43;;
12348;SDS011;5974;42.710;27.258;2023-04-28T03:03:01;3.57;;;2.37;;
12348;SDS011;5974;42.710;27.258;2023-04-28T03:05:28;7.20;;;2.60;;
12348;SDS011;5974;42.710;27.258;2023-04-28T03:07:57;4.57;;;2.90;;
12348;SDS011;5974;42.710;27.258;2023-04-28T03:10:24;3.50;;;2.60;;
12348;SDS011;5974;42.710;27.258;2023-04-28T03:12:51;5.07;;;2.87;;
12348;SDS011;5974;42.710;27.258;2023-04-28T03:15:18;6.47;;;2.83;;
12348;SDS011;5974;42.710;27.258;2023-04-28T03:17:45;4.17;;;2.80;;
12348;SDS011;5974;42.710;27.258;2023-04-28T03:20:11;6.27;;;2.93;;
12348;SDS011;5974;42.710;27.258;2023-04-28T03:22:38;8.37;;;2.83;;
12348;SDS011;5974;42.710;27.258;2023-04-28T03:25:07;4.43;;;3.07;;
12348;SDS011;5974;42.710;27.258;2023-04-28T03:27:34;3.27;;;2.70;;
12348;SDS011;5974;42.710;27.258;2023-04-28T03:30:01;7.67;;;2.93;;
12348;SDS011;5974;42.710;27.258;2023-04-28T03:32:28;8.57;;;3.20;;
12348;SDS011;5974;42.710;27.258;2023-04-28T03:34:55;4.60;;;2.60;;
12348;SDS011;5974;42.710;27.258;2023-04-28T03:37:22;7.97;;;3.37;;
12348;SDS011;5974;42.710;27.258;2023-04-28T03:39:48;4.93;;;3.10;;
12348;SDS011;5974;42.710;27.258;2023-04-28T03:42:17;6.27;;;2.90;;
12348;SDS011;5974;42.710;27.258;2023-04-28T03:44:43;5.67;;;2.70;;
12348;SDS011;5974;42.710;27.258;2023-04-28T03:47:10;4.43;;;2.57;;
12348;SDS011;5974;42.710;27.258;2023-04-28T03:49:37;9.27;;;3.17;;
12348;SDS011;5974;42.710;27.258;2023-04-28T03:52:04;7.90;;;3.27;;
12348;SDS011;5974;42.710;27.258;2023-04-28T03:54:31;3.93;;;3.53;;
12348;SDS011;5974;42.710;27.258;2023-04-28T03:56:58;5.53;;;3.73;;
12348;SDS011;5974;42.710;27.258;2023-04-28T03:59:27;5.97;;;3.27;;
12348;SDS011;5974;42.710;27.258;2023-04-28T04:01:54;6.93;;;3.60;;
12348;SDS011;5974;42.710;27.258;2023-04-28T04:04:21;6.57;;;3.97;;
12348;SDS011;5974;42.710;27.258;2023-04-28T04:06:48;7.50;;;3.03;;
12348;SDS011;5974;42.710;27.258;2023-04-28T04:09:15;6.50;;;3.20;;
12348;SDS011;5974;42.710;27.258;2023-04-28T04:11:42;5.67;;;3.70;;
12348;SDS011;5974;42.710;27.258;2023-04-28T04:14:08;17.50;;;10.10;;
12348;SDS011;5974;42.710;27.258;2023-04-28T04:16:37;16.70;;;8.10;;
12348;SDS011;5974;42.710;27.258;2023-04-28T04:19:05;6.00;;;3.37;;
12348;SDS011;5974;42.710;27.258;2023-04-28T04:21:32;2.43;;;2.10;;
12348;SDS011;5974;42.710;27.258;2023-04-28T04:23:58;6.17;;;2.23;;
12348;SDS011;5974;42.710;27.258;2023-04-28T04:26:25;5.80;;;2.30;;
12348;SDS011;5974;42.710;27.258;2023-04-28T04:28:52;4.80;;;2.93;;
12348;SDS011;5974;42.710;27.258;2023-04-28T04:31:19;4.27;;;2.20;;
12348;SDS011;5974;42.710;27.258;2023-04-28T04:33:48;4.40;;;2.33;;
12348;SDS011;5974;42.710;27.258;2023-04-28T04:36:15;2.73;;;2.27;;
12348;SDS011;5974;42.710;27.258;2023-04-28T04:38:42;3.07;;;1.90;;
12348;SDS011;5974;42.710;27.258;2023-04-28T04:41:08;4.70;;;2.07;;
12348;SDS011;5974;42.710;27.258;2023-04-28T04:43:35;4.93;;;2.20;;
12348;SDS011;5974;42.710;27.258;2023-04-28T04:46:02;3.67;;;2.17;;
12348;SDS011;5974;42.710;27.258;2023-04-28T04:48:29;3.00;;;2.43;;
12348;SDS011;5974;42.710;27.258;2023-04-28T04:50:57;2.87;;;1.83;;
12348;SDS011;5974;42.710;27.258;2023-04-28T04:53:24;4.77;;;2.17;;
12348;SDS011;5974;42.710;27.258;2023-04-28T04:55:51;2.93;;;2.00;;
12348;SDS011;5974;42.710;27.258;2023-04-28T04:58:18;4.63;;;2.13;;
12348;SDS011;5974;42.710;27.258;2023-04-28T05:00:45;5.10;;;1.93;;
12348;SDS011;5974;42.710;27.258;2023-04-28T05:03:12;2.00;;;1.70;;
12348;SDS011;5974;42.710;27.258;2023-04-28T05:05:39;3.60;;;2.03;;
12348;SDS011;5974;42.710;27.258;2023-04-28T05:08:07;2.90;;;1.83;;
12348;SDS011;5974;42.710;27.258;2023-04-28T05:10:34;4.03;;;2.43;;
12348;SDS011;5974;42.710;27.258;2023-04-28T05:13:01;3.27;;;1.90;;
12348;SDS011;5974;42.710;27.258;2023-04-28T05:15:28;2.70;;;1.67;;
12348;SDS011;5974;42.710;27.258;2023-04-28T05:17:55;2.70;;;1.63;;
12348;SDS011;5974;42.710;27.258;2023-04-28T05:20:22;5.20;;;2.07;;
12348;SDS011;5974;42.710;27.258;2023-04-28T05:22:50;3.83;;;1.90;;
12348;SDS011;5974;42.710;27.258;2023-04-28T05:25:18;1.70;;;1.60;;
12348;SDS011;5974;42.710;27.258;2023-04-28T05:27:45;3.00;;;1.43;;
12348;SDS011;5974;42.710;27.258;2023-04-28T05:30:12;4.20;;;1.70;;
12348;SDS011;5974;42.710;27.258;2023-04-28T05:32:39;5.37;;;1.60;;
12348;SDS011;5974;42.710;27.258;2023-04-28T05:35:06;4.23;;;2.00;;
12348;SDS011;5974;42.710;27.258;2023-04-28T05:37:34;3.23;;;1.73;;
12348;SDS011;5974;42.710;27.258;2023-04-28T05:40:02;1.90;;;1.70;;
12348;SDS011;5974;42.710;27.258;2023-04-28T05:42:30;3.13;;;1.97;;
12348;SDS011;5974;42.710;27.258;2023-04-28T05:44:57;2.77;;;1.67;;
12348;SDS011;5974;42.710;27.258;2023-04-28T05:47:24;4.00;;;1.77;;
12348;SDS011;5974;42.710;27.258;2023-04-28T05:49:51;3.03;;;1.80;;
12348;SDS011;5974;42.710;27.258;2023-04-28T05:52:18;2.03;;;1.50;;
12348;SDS011;5974;42.710;27.258;2023-04-28T05:54:46;2.70;;;1.60;;
12348;SDS011;5974;42.710;27.258;2023-04-28T05:57:13;2.30;;;1.40;;
12348;SDS011;5974;42.710;27.258;2023-04-28T05:59:42;3.83;;;1.60;;
12348;SDS011;5974;42.710;27.258;2023-04-28T06:02:09;2.53;;;1.83;;
12348;SDS011;5974;42.710;27.258;2023-04-28T06:04:35;1.93;;;1.37;;
12348;SDS011;5974;42.710;27.258;2023-04-28T06:07:03;3.80;;;2.03;;
12348;SDS011;5974;42.710;27.258;2023-04-28T06:09:30;2.53;;;1.63;;
12348;SDS011;5974;42.710;27.258;2023-04-28T06:11:57;4.53;;;1.50;;
12348;SDS011;5974;42.710;27.258;2023-04-28T06:14:24;4.03;;;1.50;;
12348;SDS011;5974;42.710;27.258;2023-04-28T06:16:52;3.87;;;1.50;;
12348;SDS011;5974;42.710;27.258;2023-04-28T06:19:19;2.30;;;1.53;;
12348;SDS011;5974;42.710;27.258;2023-04-28T06:21:46;4.13;;;1.80;;
12348;SDS011;5974;42.710;27.258;2023-04-28T06:24:14;2.93;;;1.53;;
12348;SDS011;5974;42.710;27.258;2023-04-28T06:26:41;2.50;;;1.80;;
12348;SDS011;5974;42.710;27.258;2023-04-28T06:29:08;3.30;;;1.50;;
12348;SDS011;5974;42.710;27.258;2023-04-28T06:31:35;1.90;;;1.67;;
12348;SDS011;5974;42.710;27.258;2023-04-28T06:34:03;2.43;;;1.70;;
12348;SDS011;5974;42.710;27.258;2023-04-28T06:36:30;1.90;;;1.50;;
12348;SDS011;5974;42.710;27.258;2023-04-28T06:38:57;5.63;;;1.90;;
12348;SDS011;5974;42.710;27.258;2023-04-28T06:41:24;2.40;;;1.70;;
12348;SDS011;5974;42.710;27.258;2023-04-28T06:43:53;1.40;;;1.20;;
12348;SDS011;5974;42.710;27.258;2023-04-28T06:46:20;1.90;;;1.60;;
12348;SDS011;5974;42.710;27.258;2023-04-28T06:48:47;2.97;;;1.40;;
12348;SDS011;5974;42.710;27.258;2023-04-28T06:51:15;3.03;;;1.63;;
12348;SDS011;5974;42.710;27.258;2023-04-28T06:53:42;2.07;;;1.50;;
12348;SDS011;5974;42.710;27.258;2023-04-28T06:56:09;2.57;;;1.60;;
12348;SDS011;5974;42.710;27.258;2023-04-28T06:58:35;5.67;;;2.00;;
12348;SDS011;5974;42.710;27.258;2023-04-28T07:01:02;3.43;;;1.50;;
12348;SDS011;5974;42.710;27.258;2023-04-28T07:03:29;2.13;;;1.30;;
12348;SDS011;5974;42.710;27.258;2023-04-28T07:05:56;2.17;;;1.50;;
12348;SDS011;5974;42.710;27.258;2023-04-28T07:08:25;2.00;;;1.53;;
12348;SDS011;5974;42.710;27.258;2023-04-28T07:10:53;2.43;;;1.50;;
12348;SDS011;5974;42.710;27.258;2023-04-28T07:13:20;2.77;;;1.77;;
12348;SDS011;5974;42.710;27.258;2023-04-28T07:15:47;2.57;;;1.67;;
12348;SDS011;5974;42.710;27.258;2023-04-28T07:18:14;2.97;;;1.50;;
12348;SDS011;5974;42.710;27.258;2023-04-28T07:20:41;6.33;;;1.90;;
12348;SDS011;5974;42.710;27.258;2023-04-28T07:23:08;7.33;;;1.87;;
12348;SDS011;5974;42.710;27.258;2023-04-28T07:25:36;1.73;;;1.40;;
12348;SDS011;5974;42.710;27.258;2023-04-28T07:28:04;1.97;;;1.30;;
12348;SDS011;5974;42.710;27.258;2023-04-28T07:30:32;3.97;;;1.70;;
12348;SDS011;5974;42.710;27.258;2023-04-28T07:32:59;2.73;;;1.50;;
12348;SDS011;5974;42.710;27.258;2023-04-28T07:35:26;2.33;;;1.57;;
12348;SDS011;5974;42.710;27.258;2023-04-28T07:37:54;3.90;;;1.83;;
12348;SDS011;5974;42.710;27.258;2023-04-28T07:40:22;2.97;;;1.33;;
12348;SDS011;5974;42.710;27.258;2023-04-28T07:42:50;2.43;;;1.73;;
12348;SDS011;5974;42.710;27.258;2023-04-28T07:45:17;1.73;;;1.63;;
12348;SDS011;5974;42.710;27.258;2023-04-28T07:47:44;1.83;;;1.50;;
12348;SDS011;5974;42.710;27.258;2023-04-28T07:50:11;1.50;;;1.40;;
12348;SDS011;5974;42.710;27.258;2023-04-28T07:52:38;3.60;;;1.60;;
12348;SDS011;5974;42.710;27.258;2023-04-28T07:55:05;3.43;;;1.70;;
12348;SDS011;5974;42.710;27.258;2023-04-28T07:57:32;2.27;;;1.43;;
12348;SDS011;5974;42.710;27.258;2023-04-28T08:00:00;4.40;;;1.57;;
12348;SDS011;5974;42.710;27.258;2023-04-28T08:02:27;3.33;;;1.43;;
12348;SDS011;5974;42.710;27.258;2023-04-28T08:04:54;3.93;;;1.40;;
12348;SDS011;5974;42.710;27.258;2023-04-28T08:07:21;2.30;;;1.40;;
12348;SDS011;5974;42.710;27.258;2023-04-28T08:09:48;2.67;;;1.50;;
12348;SDS011;5974;42.710;27.258;2023-04-28T08:12:15;2.60;;;1.50;;
12348;SDS011;5974;42.710;27.258;2023-04-28T08:14:42;2.77;;;1.50;;
12348;SDS011;5974;42.710;27.258;2023-04-28T08:17:10;3.50;;;1.70;;
12348;SDS011;5974;42.710;27.258;2023-04-28T08:19:37;2.13;;;1.57;;
12348;SDS011;5974;42.710;27.258;2023-04-28T08:22:04;3.33;;;1.70;;
12348;SDS011;5974;42.710;27.258;2023-04-28T08:24:31;1.47;;;1.37;;
12348;SDS011;5974;42.710;27.258;2023-04-28T08:26:59;2.67;;;1.67;;
12348;SDS011;5974;42.710;27.258;2023-04-28T08:29:27;4.33;;;1.47;;
12348;SDS011;5974;42.710;27.258;2023-04-28T08:31:54;2.87;;;1.60;;
12348;SDS011;5974;42.710;27.258;2023-04-28T08:34:23;2.43;;;1.50;;
12348;SDS011;5974;42.710;27.258;2023-04-28T08:36:50;2.07;;;1.20;;
12348;SDS011;5974;42.710;27.258;2023-04-28T08:39:17;2.27;;;1.23;;
12348;SDS011;5974;42.710;27.258;2023-04-28T08:41:46;3.13;;;1.60;;
12348;SDS011;5974;42.710;27.258;2023-04-28T08:44:13;1.37;;;1.30;;
12348;SDS011;5974;42.710;27.258;2023-04-28T08:46:42;1.93;;;1.50;;
12348;SDS011;5974;42.710;27.258;2023-04-28T08:49:11;2.97;;;1.67;;
12348;SDS011;5974;42.710;27.258;2023-04-28T08:51:43;2.00;;;1.57;;
12348;SDS011;5974;42.710;27.258;2023-04-28T08:54:12;2.10;;;1.50;;
12348;SDS011;5974;42.710;27.258;2023-04-28T08:56:41;5.97;;;2.00;;
12348;SDS011;5974;42.710;27.258;2023-04-28T08:59:10;3.73;;;1.70;;
12348;SDS011;5974;42.710;27.258;2023-04-28T09:01:37;2.03;;;1.50;;
12348;SDS011;5974;42.710;27.258;2023-04-28T09:04:04;6.93;;;1.90;;
12348;SDS011;5974;42.710;27.258;2023-04-28T09:06:32;2.33;;;1.60;;
12348;SDS011;5974;42.710;27.258;2023-04-28T09:09:22;3.97;;;1.70;;
12348;SDS011;5974;42.710;27.258;2023-04-28T09:11:53;4.07;;;1.73;;
12348;SDS011;5974;42.710;27.258;2023-04-28T09:14:22;4.30;;;1.70;;
12348;SDS011;5974;42.710;27.258;2023-04-28T09:16:49;4.33;;;1.60;;
12348;SDS011;5974;42.710;27.258;2023-04-28T09:19:16;3.60;;;1.63;;
12348;SDS011;5974;42.710;27.258;2023-04-28T09:21:47;3.27;;;1.67;;
12348;SDS011;5974;42.710;27.258;2023-04-28T09:24:27;3.43;;;1.60;;
12348;SDS011;5974;42.710;27.258;2023-04-28T09:26:54;2.50;;;1.70;;
12348;SDS011;5974;42.710;27.258;2023-04-28T09:29:21;3.17;;;1.60;;
12348;SDS011;5974;42.710;27.258;2023-04-28T09:31:48;1.63;;;1.50;;
12348;SDS011;5974;42.710;27.258;2023-04-28T09:34:15;3.57;;;2.00;;
12348;SDS011;5974;42.710;27.258;2023-04-28T09:36:42;3.40;;;1.73;;
12348;SDS011;5974;42.710;27.258;2023-04-28T09:39:09;1.80;;;1.60;;
12348;SDS011;5974;42.710;27.258;2023-04-28T09:41:38;4.07;;;1.67;;
12348;SDS011;5974;42.710;27.258;2023-04-28T09:44:09;3.30;;;1.70;;
12348;SDS011;5974;42.710;27.258;2023-04-28T09:46:39;1.60;;;1.50;;
12348;SDS011;5974;42.710;27.258;2023-04-28T09:49:06;5.27;;;1.93;;
12348;SDS011;5974;42.710;27.258;2023-04-28T09:51:34;4.03;;;2.00;;
12348;SDS011;5974;42.710;27.258;2023-04-28T09:54:02;3.23;;;2.03;;
12348;SDS011;5974;42.710;27.258;2023-04-28T09:56:30;2.97;;;1.93;;
12348;SDS011;5974;42.710;27.258;2023-04-28T09:59:00;1.40;;;1.30;;
12348;SDS011;5974;42.710;27.258;2023-04-28T10:01:30;3.90;;;1.40;;
12348;SDS011;5974;42.710;27.258;2023-04-28T10:03:59;1.47;;;1.20;;
12348;SDS011;5974;42.710;27.258;2023-04-28T10:06:27;1.70;;;1.60;;
12348;SDS011;5974;42.710;27.258;2023-04-28T10:08:55;2.93;;;1.57;;
12348;SDS011;5974;42.710;27.258;2023-04-28T10:11:24;3.47;;;1.53;;
12348;SDS011;5974;42.710;27.258;2023-04-28T10:13:52;2.30;;;1.37;;
12348;SDS011;5974;42.710;27.258;2023-04-28T10:16:21;2.47;;;1.90;;
12348;SDS011;5974;42.710;27.258;2023-04-28T10:18:49;2.87;;;1.80;;
12348;SDS011;5974;42.710;27.258;2023-04-28T10:21:19;2.93;;;1.50;;
12348;SDS011;5974;42.710;27.258;2023-04-28T10:23:55;2.83;;;1.77;;
12348;SDS011;5974;42.710;27.258;2023-04-28T10:26:35;4.33;;;1.70;;
12348;SDS011;5974;42.710;27.258;2023-04-28T10:29:30;2.43;;;1.50;;
12348;SDS011;5974;42.710;27.258;2023-04-28T10:32:15;2.83;;;1.60;;
12348;SDS011;5974;42.710;27.258;2023-04-28T10:34:43;4.00;;;2.37;;
12348;SDS011;5974;42.710;27.258;2023-04-28T10:37:11;4.30;;;1.53;;
12348;SDS011;5974;42.710;27.258;2023-04-28T10:39:39;2.10;;;1.60;;
12348;SDS011;5974;42.710;27.258;2023-04-28T10:45:07;2.23;;;1.67;;
12348;SDS011;5974;42.710;27.258;2023-04-28T10:50:30;1.93;;;1.60;;
12348;SDS011;5974;42.710;27.258;2023-04-28T10:52:57;4.60;;;1.53;;
12348;SDS011;5974;42.710;27.258;2023-04-28T10:55:28;3.27;;;1.57;;
12348;SDS011;5974;42.710;27.258;2023-04-28T11:01:24;4.37;;;1.90;;
12348;SDS011;5974;42.710;27.258;2023-04-28T11:03:55;2.37;;;1.70;;
12348;SDS011;5974;42.710;27.258;2023-04-28T11:06:27;2.83;;;1.90;;
12348;SDS011;5974;42.710;27.258;2023-04-28T11:08:58;1.97;;;1.70;;
12348;SDS011;5974;42.710;27.258;2023-04-28T11:11:26;2.57;;;1.77;;
12348;SDS011;5974;42.710;27.258;2023-04-28T11:13:54;1.77;;;1.57;;
12348;SDS011;5974;42.710;27.258;2023-04-28T11:16:47;2.60;;;1.67;;
12348;SDS011;5974;42.710;27.258;2023-04-28T11:19:17;1.63;;;1.53;;
12348;SDS011;5974;42.710;27.258;2023-04-28T11:21:46;2.43;;;1.70;;
12348;SDS011;5974;42.710;27.258;2023-04-28T11:24:13;4.17;;;1.97;;
12348;SDS011;5974;42.710;27.258;2023-04-28T11:26:41;2.33;;;1.80;;
12348;SDS011;5974;42.710;27.258;2023-04-28T11:29:09;3.77;;;1.70;;
12348;SDS011;5974;42.710;27.258;2023-04-28T11:31:36;2.57;;;1.67;;
12348;SDS011;5974;42.710;27.258;2023-04-28T11:34:05;3.57;;;1.53;;
12348;SDS011;5974;42.710;27.258;2023-04-28T11:36:37;3.03;;;2.00;;
12348;SDS011;5974;42.710;27.258;2023-04-28T11:39:06;1.80;;;1.60;;
12348;SDS011;5974;42.710;27.258;2023-04-28T11:41:33;4.73;;;1.67;;
12348;SDS011;5974;42.710;27.258;2023-04-28T11:44:08;2.27;;;1.63;;
12348;SDS011;5974;42.710;27.258;2023-04-28T11:46:35;1.50;;;1.40;;
12348;SDS011;5974;42.710;27.258;2023-04-28T11:49:10;3.27;;;1.90;;
12348;SDS011;5974;42.710;27.258;2023-04-28T11:51:40;4.47;;;2.00;;
12348;SDS011;5974;42.710;27.258;2023-04-28T11:54:09;3.63;;;1.63;;
12348;SDS011;5974;42.710;27.258;2023-04-28T11:56:39;3.40;;;1.97;;
12348;SDS011;5974;42.710;27.258;2023-04-28T11:59:07;2.97;;;1.83;;
12348;SDS011;5974;42.710;27.258;2023-04-28T12:01:43;4.53;;;1.80;;
12348;SDS011;5974;42.710;27.258;2023-04-28T12:04:12;1.60;;;1.50;;
12348;SDS011;5974;42.710;27.258;2023-04-28T12:06:40;2.43;;;1.50;;
12348;SDS011;5974;42.710;27.258;2023-04-28T12:09:14;2.73;;;1.60;;
12348;SDS011;5974;42.710;27.258;2023-04-28T12:11:51;1.77;;;1.63;;
12348;SDS011;5974;42.710;27.258;2023-04-28T12:14:19;5.50;;;1.73;;
12348;SDS011;5974;42.710;27.258;2023-04-28T12:16:46;2.97;;;1.50;;
12348;SDS011;5974;42.710;27.258;2023-04-28T12:19:14;9.87;;;2.23;;
12348;SDS011;5974;42.710;27.258;2023-04-28T12:21:42;2.40;;;1.47;;
12348;SDS011;5974;42.710;27.258;2023-04-28T12:24:13;1.60;;;1.50;;
12348;SDS011;5974;42.710;27.258;2023-04-28T12:26:41;12.03;;;2.00;;
12348;SDS011;5974;42.710;27.258;2023-04-28T12:29:08;3.07;;;1.90;;
12348;SDS011;5974;42.710;27.258;2023-04-28T12:31:47;3.33;;;1.50;;
12348;SDS011;5974;42.710;27.258;2023-04-28T12:34:16;1.60;;;1.23;;
12348;SDS011;5974;42.710;27.258;2023-04-28T12:36:45;3.83;;;1.63;;
12348;SDS011;5974;42.710;27.258;2023-04-28T12:39:12;2.40;;;1.60;;
12348;SDS011;5974;42.710;27.258;2023-04-28T12:41:43;2.40;;;1.53;;
12348;SDS011;5974;42.710;27.258;2023-04-28T12:44:09;5.97;;;1.90;;
12348;SDS011;5974;42.710;27.258;2023-04-28T12:46:36;1.73;;;1.40;;
12348;SDS011;5974;42.710;27.258;2023-04-28T12:49:03;2.00;;;1.40;;
12348;SDS011;5974;42.710;27.258;2023-04-28T12:51:30;4.13;;;1.50;;
12348;SDS011;5974;42.710;27.258;2023-04-28T12:54:00;3.03;;;1.50;;
12348;SDS011;5974;42.710;27.258;2023-04-28T12:56:27;4.40;;;1.70;;
12348;SDS011;5974;42.710;27.258;2023-04-28T12:58:54;2.00;;;1.50;;
12348;SDS011;5974;42.710;27.258;2023-04-28T13:01:21;1.57;;;1.47;;
12348;SDS011;5974;42.710;27.258;2023-04-28T13:03:49;2.30;;;1.80;;
12348;SDS011;5974;42.710;27.258;2023-04-28T13:06:17;3.73;;;1.40;;
12348;SDS011;5974;42.710;27.258;2023-04-28T13:08:44;2.70;;;1.30;;
12348;SDS011;5974;42.710;27.258;2023-04-28T13:11:13;2.07;;;1.43;;
12348;SDS011;5974;42.710;27.258;2023-04-28T13:13:40;5.37;;;1.80;;
12348;SDS011;5974;42.710;27.258;2023-04-28T13:16:08;4.40;;;1.50;;
12348;SDS011;5974;42.710;27.258;2023-04-28T13:18:36;4.43;;;1.50;;
12348;SDS011;5974;42.710;27.258;2023-04-28T13:21:03;6.90;;;1.90;;
12348;SDS011;5974;42.710;27.258;2023-04-28T13:23:30;1.47;;;1.37;;
12348;SDS011;5974;42.710;27.258;2023-04-28T13:25:57;2.17;;;1.70;;
12348;SDS011;5974;42.710;27.258;2023-04-28T13:28:26;3.90;;;1.70;;
12348;SDS011;5974;42.710;27.258;2023-04-28T13:30:53;1.70;;;1.50;;
12348;SDS011;5974;42.710;27.258;2023-04-28T13:33:20;3.00;;;1.60;;
12348;SDS011;5974;42.710;27.258;2023-04-28T13:35:47;4.50;;;1.63;;
12348;SDS011;5974;42.710;27.258;2023-04-28T13:38:14;2.17;;;1.50;;
12348;SDS011;5974;42.710;27.258;2023-04-28T13:40:41;2.30;;;1.80;;
12348;SDS011;5974;42.710;27.258;2023-04-28T13:43:08;2.53;;;1.43;;
12348;SDS011;5974;42.710;27.258;2023-04-28T13:45:36;3.03;;;1.60;;
12348;SDS011;5974;42.710;27.258;2023-04-28T13:48:03;1.77;;;1.60;;
12348;SDS011;5974;42.710;27.258;2023-04-28T13:50:30;1.90;;;1.60;;
12348;SDS011;5974;42.710;27.258;2023-04-28T13:52:57;2.47;;;1.67;;
12348;SDS011;5974;42.710;27.258;2023-04-28T13:55:24;1.50;;;1.37;;
12348;SDS011;5974;42.710;27.258;2023-04-28T13:57:52;1.87;;;1.40;;
12348;SDS011;5974;42.710;27.258;2023-04-28T14:00:19;2.07;;;1.30;;
12348;SDS011;5974;42.710;27.258;2023-04-28T14:02:50;1.60;;;1.50;;
12348;SDS011;5974;42.710;27.258;2023-04-28T14:05:17;4.63;;;1.87;;
12348;SDS011;5974;42.710;27.258;2023-04-28T14:07:43;4.03;;;2.17;;
12348;SDS011;5974;42.710;27.258;2023-04-28T14:10:11;1.63;;;1.50;;
12348;SDS011;5974;42.710;27.258;2023-04-28T14:12:38;3.07;;;1.60;;
12348;SDS011;5974;42.710;27.258;2023-04-28T14:15:05;3.80;;;1.47;;
12348;SDS011;5974;42.710;27.258;2023-04-28T14:17:33;2.63;;;1.50;;
12348;SDS011;5974;42.710;27.258;2023-04-28T14:20:02;2.07;;;1.67;;
12348;SDS011;5974;42.710;27.258;2023-04-28T14:22:29;5.13;;;1.60;;
12348;SDS011;5974;42.710;27.258;2023-04-28T14:24:56;2.63;;;1.60;;
12348;SDS011;5974;42.710;27.258;2023-04-28T14:27:23;1.80;;;1.70;;
12348;SDS011;5974;42.710;27.258;2023-04-28T14:29:50;3.60;;;1.60;;
12348;SDS011;5974;42.710;27.258;2023-04-28T14:32:17;2.00;;;1.60;;
12348;SDS011;5974;42.710;27.258;2023-04-28T14:34:45;1.83;;;1.37;;
12348;SDS011;5974;42.710;27.258;2023-04-28T14:37:15;3.17;;;1.80;;
12348;SDS011;5974;42.710;27.258;2023-04-28T14:39:42;1.93;;;1.77;;
12348;SDS011;5974;42.710;27.258;2023-04-28T14:42:09;3.97;;;1.60;;
12348;SDS011;5974;42.710;27.258;2023-04-28T14:44:36;3.00;;;2.00;;
12348;SDS011;5974;42.710;27.258;2023-04-28T14:47:02;1.90;;;1.80;;
12348;SDS011;5974;42.710;27.258;2023-04-28T14:49:29;3.43;;;1.70;;
12348;SDS011;5974;42.710;27.258;2023-04-28T14:51:57;2.20;;;1.80;;
12348;SDS011;5974;42.710;27.258;2023-04-28T14:54:26;5.10;;;1.80;;
12348;SDS011;5974;42.710;27.258;2023-04-28T14:56:53;1.90;;;1.63;;
12348;SDS011;5974;42.710;27.258;2023-04-28T14:59:20;2.10;;;1.40;;
12348;SDS011;5974;42.710;27.258;2023-04-28T15:01:47;3.73;;;1.70;;